createdAt,value
2018-06-29T00:00:23.205Z,13.53
2018-06-29T00:02:52.040Z,14.73
2018-06-29T00:05:20.620Z,14.37
2018-06-29T00:07:49.412Z,15.43
2018-06-29T00:10:21.633Z,14.33
2018-06-29T00:12:50.434Z,15.50
2018-06-29T00:15:18.998Z,15.33
2018-06-29T00:17:47.778Z,13.97
2018-06-29T00:20:16.331Z,15.00
2018-06-29T00:22:45.329Z,13.60
2018-06-29T00:25:14.116Z,12.57
2018-06-29T00:27:42.919Z,13.30
2018-06-29T00:30:11.483Z,15.03
2018-06-29T00:32:40.178Z,13.83
2018-06-29T00:35:08.720Z,14.70
2018-06-29T00:37:37.471Z,14.33
2018-06-29T00:40:06.040Z,14.30
2018-06-29T00:42:34.846Z,15.13
2018-06-29T00:45:03.466Z,14.97
2018-06-29T00:47:32.216Z,13.50
2018-06-29T00:50:00.778Z,13.53
2018-06-29T00:52:29.701Z,14.27
2018-06-29T00:54:58.320Z,14.23
2018-06-29T00:57:26.911Z,14.83
2018-06-29T00:59:55.678Z,12.50
2018-06-29T01:02:24.224Z,12.73
2018-06-29T01:04:53.162Z,12.43
2018-06-29T01:07:21.931Z,10.57
2018-06-29T01:09:50.465Z,12.17
2018-06-29T01:12:19.062Z,12.17
2018-06-29T01:14:47.617Z,10.87
2018-06-29T01:17:16.401Z,11.20
2018-06-29T01:19:45.004Z,10.93
2018-06-29T01:22:13.745Z,10.73
2018-06-29T01:24:42.373Z,10.40
2018-06-29T01:27:11.387Z,10.53
2018-06-29T01:29:40.130Z,10.67
2018-06-29T01:32:08.733Z,10.10
2018-06-29T01:34:37.532Z,11.13
2018-06-29T01:37:06.064Z,10.10
2018-06-29T01:39:34.801Z,11.63
2018-06-29T01:42:03.459Z,10.60
2018-06-29T01:44:32.306Z,11.40
2018-06-29T01:47:00.889Z,11.13
2018-06-29T01:49:29.689Z,12.10
2018-06-29T01:51:58.257Z,11.20
2018-06-29T01:54:27.059Z,11.10
2018-06-29T01:56:55.713Z,10.03
2018-06-29T01:59:24.675Z,9.47
2018-06-29T02:01:53.232Z,11.17
2018-06-29T02:04:22.037Z,11.77
2018-06-29T02:06:50.660Z,12.33
2018-06-29T02:09:19.259Z,12.33
2018-06-29T02:11:47.797Z,10.73
2018-06-29T02:14:16.343Z,10.20
2018-06-29T02:16:44.891Z,11.00
2018-06-29T02:19:13.660Z,11.10
2018-06-29T02:21:42.210Z,12.07
2018-06-29T02:24:11.025Z,11.70
2018-06-29T02:26:39.562Z,11.30
2018-06-29T02:29:08.309Z,12.77
2018-06-29T02:31:36.873Z,12.20
2018-06-29T02:34:05.682Z,12.93
2018-06-29T02:36:34.381Z,12.00
2018-06-29T02:39:02.967Z,12.97
2018-06-29T02:41:31.517Z,13.17
2018-06-29T02:44:00.241Z,11.20
2018-06-29T02:46:28.825Z,11.30
2018-06-29T02:48:57.554Z,12.40
2018-06-29T02:51:26.106Z,12.03
2018-06-29T02:53:54.888Z,11.87
2018-06-29T02:56:23.449Z,10.70
2018-06-29T02:58:52.177Z,9.60
2018-06-29T03:01:20.808Z,11.40
2018-06-29T03:03:49.554Z,11.53
2018-06-29T03:06:18.129Z,12.43
2018-06-29T03:08:46.936Z,13.00
2018-06-29T03:11:15.480Z,10.73
2018-06-29T03:13:44.216Z,11.97
2018-06-29T03:16:12.803Z,12.30
2018-06-29T03:18:41.585Z,12.67
2018-06-29T03:21:10.107Z,11.63
2018-06-29T03:23:38.826Z,10.33
2018-06-29T03:26:07.373Z,11.83
2018-06-29T03:28:35.947Z,11.17
2018-06-29T03:31:04.515Z,11.90
2018-06-29T03:33:33.209Z,11.90
2018-06-29T03:36:01.756Z,12.73
2018-06-29T03:38:30.487Z,10.60
2018-06-29T03:40:59.055Z,10.63
2018-06-29T03:43:27.769Z,10.00
2018-06-29T03:45:56.438Z,10.07
2018-06-29T03:48:25.157Z,11.97
2018-06-29T03:50:53.715Z,10.60
2018-06-29T03:53:22.430Z,11.87
2018-06-29T03:55:50.979Z,11.27
2018-06-29T03:58:19.813Z,11.60
2018-06-29T04:00:48.386Z,9.73
2018-06-29T04:03:17.151Z,9.57
2018-06-29T04:05:45.732Z,10.20
2018-06-29T04:08:14.362Z,9.73
2018-06-29T04:10:42.949Z,9.30
2018-06-29T04:13:11.744Z,10.10
2018-06-29T04:15:40.304Z,10.67
2018-06-29T04:18:09.133Z,9.67
2018-06-29T04:20:37.763Z,9.97
2018-06-29T04:23:06.535Z,9.27
2018-06-29T04:25:35.119Z,9.70
2018-06-29T04:28:03.877Z,10.50
2018-06-29T04:30:32.442Z,11.03
2018-06-29T04:33:01.272Z,10.77
2018-06-29T04:35:29.857Z,10.57
2018-06-29T04:37:59.059Z,11.27
2018-06-29T04:40:27.678Z,9.70
2018-06-29T04:42:56.396Z,10.37
2018-06-29T04:45:24.621Z,11.77
2018-06-29T04:47:53.409Z,10.93
2018-06-29T04:50:22.032Z,10.30
2018-06-29T04:52:50.779Z,10.63
2018-06-29T04:55:19.318Z,10.40
2018-06-29T04:57:48.162Z,10.33
2018-06-29T05:00:16.715Z,10.30
2018-06-29T05:02:45.330Z,10.97
2018-06-29T05:05:13.979Z,10.70
2018-06-29T05:07:42.941Z,9.83
2018-06-29T05:10:11.592Z,10.10
2018-06-29T05:12:40.211Z,10.00
2018-06-29T05:15:08.788Z,10.17
2018-06-29T05:17:37.526Z,10.27
2018-06-29T05:20:06.280Z,10.40
2018-06-29T05:22:35.033Z,10.63
2018-06-29T05:25:03.642Z,10.20
2018-06-29T05:27:32.251Z,9.87
2018-06-29T05:30:01.123Z,10.60
2018-06-29T05:32:30.040Z,9.93
2018-06-29T05:34:58.632Z,9.30
2018-06-29T05:37:27.225Z,10.20
2018-06-29T05:39:55.950Z,10.27
2018-06-29T05:42:24.804Z,9.57
2018-06-29T05:44:53.366Z,10.03
2018-06-29T05:47:22.041Z,10.97
2018-06-29T05:49:50.660Z,10.57
2018-06-29T05:52:19.442Z,10.57
2018-06-29T05:54:48.043Z,9.33
2018-06-29T05:57:16.840Z,10.83
2018-06-29T05:59:45.427Z,9.33
2018-06-29T06:02:14.071Z,9.77
2018-06-29T06:04:42.775Z,9.40
2018-06-29T06:07:11.740Z,9.93
2018-06-29T06:09:40.372Z,8.73
2018-06-29T06:12:09.295Z,9.17
2018-06-29T06:14:37.877Z,9.90
2018-06-29T06:17:06.591Z,9.80
2018-06-29T06:19:46.397Z,8.47
2018-06-29T06:22:15.294Z,8.70
2018-06-29T06:24:43.894Z,8.50
2018-06-29T06:27:12.505Z,7.83
2018-06-29T06:29:41.189Z,8.17
2018-06-29T06:32:09.855Z,8.73
2018-06-29T06:34:38.765Z,7.77
2018-06-29T06:37:07.638Z,7.57
2018-06-29T06:39:37.252Z,8.27
2018-06-29T06:42:05.890Z,8.50
2018-06-29T06:44:34.625Z,7.67
2018-06-29T06:47:03.478Z,7.60
2018-06-29T06:49:32.089Z,8.30
2018-06-29T06:52:01.106Z,8.17
2018-06-29T06:54:29.724Z,7.70
2018-06-29T06:56:58.391Z,7.97
2018-06-29T06:59:27.094Z,8.07
2018-06-29T07:01:55.958Z,8.47
2018-06-29T07:04:24.527Z,7.93
2018-06-29T07:06:53.556Z,7.80
2018-06-29T07:09:22.100Z,8.20
2018-06-29T07:11:50.929Z,8.13
2018-06-29T07:14:19.519Z,7.90
2018-06-29T07:16:48.138Z,8.33
2018-06-29T07:19:16.781Z,7.97
2018-06-29T07:21:45.563Z,7.97
2018-06-29T07:24:14.100Z,7.40
2018-06-29T07:26:42.703Z,8.50
2018-06-29T07:29:11.391Z,8.37
2018-06-29T07:31:40.339Z,8.90
2018-06-29T07:34:09.009Z,7.83
2018-06-29T07:36:37.880Z,8.67
2018-06-29T07:39:08.289Z,7.63
2018-06-29T07:41:37.061Z,7.00
2018-06-29T07:44:05.600Z,7.97
2018-06-29T07:46:34.525Z,7.50
2018-06-29T07:49:03.217Z,6.70
2018-06-29T07:51:32.045Z,7.43
2018-06-29T07:54:00.656Z,7.33
2018-06-29T07:56:29.429Z,7.00
2018-06-29T07:58:58.037Z,7.87
2018-06-29T08:01:26.665Z,6.83
2018-06-29T08:03:55.301Z,6.77
2018-06-29T08:06:24.085Z,6.50
2018-06-29T08:08:52.645Z,6.90
2018-06-29T08:11:21.496Z,6.93
2018-06-29T08:13:50.101Z,7.03
2018-06-29T08:16:18.978Z,6.37
2018-06-29T08:18:47.661Z,6.60
2018-06-29T08:21:16.581Z,6.57
2018-06-29T08:23:45.189Z,6.80
2018-06-29T08:26:22.028Z,6.83
2018-06-29T08:28:50.838Z,6.77
2018-06-29T08:31:20.323Z,7.13
2018-06-29T08:33:48.883Z,6.80
2018-06-29T08:36:17.650Z,7.17
2018-06-29T08:38:46.565Z,6.63
2018-06-29T08:41:15.276Z,7.03
2018-06-29T08:43:43.882Z,7.13
2018-06-29T08:46:12.623Z,7.27
2018-06-29T08:48:41.304Z,6.90
2018-06-29T08:51:09.982Z,7.43
2018-06-29T08:53:38.713Z,7.00
2018-06-29T08:56:07.303Z,6.97
2018-06-29T08:58:35.876Z,6.77
2018-06-29T09:01:04.482Z,6.20
2018-06-29T09:03:33.069Z,6.63
2018-06-29T09:06:01.705Z,6.87
2018-06-29T09:08:30.308Z,7.13
2018-06-29T09:10:59.056Z,6.57
2018-06-29T09:13:27.643Z,6.00
2018-06-29T09:15:56.052Z,6.50
2018-06-29T09:18:24.593Z,6.60
2018-06-29T09:20:53.407Z,6.47
2018-06-29T09:23:21.970Z,6.63
2018-06-29T09:25:50.848Z,6.27
2018-06-29T09:28:19.521Z,6.27
2018-06-29T09:30:48.105Z,6.03
2018-06-29T09:33:16.639Z,6.57
2018-06-29T09:35:45.399Z,5.83
2018-06-29T09:38:13.953Z,6.20
2018-06-29T09:40:42.546Z,5.73
2018-06-29T09:43:11.117Z,5.60
2018-06-29T09:45:39.933Z,5.33
2018-06-29T09:48:08.638Z,5.40
2018-06-29T09:50:37.220Z,5.40
2018-06-29T09:53:05.917Z,5.73
2018-06-29T09:55:34.585Z,5.90
2018-06-29T09:58:03.253Z,5.57
2018-06-29T10:00:32.789Z,6.50
2018-06-29T10:03:01.676Z,5.40
2018-06-29T10:05:30.464Z,5.23
2018-06-29T10:07:59.059Z,5.00
2018-06-29T10:10:27.800Z,4.50
2018-06-29T10:12:56.388Z,4.17
2018-06-29T10:15:25.216Z,4.00
2018-06-29T10:17:53.820Z,4.13
2018-06-29T10:20:22.579Z,4.20
2018-06-29T10:22:51.117Z,4.20
2018-06-29T10:25:19.849Z,4.53
2018-06-29T10:27:48.335Z,4.10
2018-06-29T10:30:16.899Z,4.13
2018-06-29T10:32:45.510Z,4.30
2018-06-29T10:35:14.224Z,4.57
2018-06-29T10:37:42.746Z,4.17
2018-06-29T10:40:11.398Z,4.50
2018-06-29T10:42:39.944Z,5.00
2018-06-29T10:45:08.746Z,4.67
2018-06-29T10:47:37.467Z,5.13
2018-06-29T10:50:06.147Z,4.37
2018-06-29T10:52:34.793Z,4.83
2018-06-29T10:55:03.508Z,4.87
2018-06-29T10:57:32.104Z,4.90
2018-06-29T11:00:00.915Z,4.80
2018-06-29T11:02:29.850Z,4.43
2018-06-29T11:04:58.868Z,4.50
2018-06-29T11:07:27.550Z,5.00
2018-06-29T11:09:56.258Z,5.00
2018-06-29T11:12:24.822Z,4.97
2018-06-29T11:14:53.404Z,5.00
2018-06-29T11:17:21.934Z,4.90
2018-06-29T11:19:50.522Z,4.83
2018-06-29T11:22:19.045Z,4.90
2018-06-29T11:24:47.808Z,4.67
2018-06-29T11:27:16.400Z,4.77
2018-06-29T11:29:45.387Z,5.20
2018-06-29T11:32:13.983Z,4.43
2018-06-29T11:34:42.944Z,5.40
2018-06-29T11:37:11.670Z,5.57
2018-06-29T11:39:40.597Z,4.70
2018-06-29T11:42:09.218Z,4.30
2018-06-29T11:44:37.824Z,4.83
2018-06-29T11:47:06.372Z,4.33
2018-06-29T11:49:35.123Z,4.17
2018-06-29T11:52:03.645Z,4.90
2018-06-29T11:54:32.207Z,5.37
2018-06-29T11:57:00.787Z,4.93
2018-06-29T11:59:29.696Z,4.77
2018-06-29T12:01:58.303Z,5.13
2018-06-29T12:04:27.069Z,5.10
2018-06-29T12:06:55.676Z,4.70
2018-06-29T12:09:24.546Z,4.70
2018-06-29T12:11:53.216Z,5.20
2018-06-29T12:14:21.945Z,4.63
2018-06-29T12:16:50.607Z,4.33
2018-06-29T12:19:19.384Z,4.63
2018-06-29T12:21:47.927Z,4.13
2018-06-29T12:24:16.868Z,4.43
2018-06-29T12:26:45.453Z,4.20
2018-06-29T12:29:14.391Z,4.00
2018-06-29T12:31:42.992Z,4.33
2018-06-29T12:34:11.691Z,4.47
2018-06-29T12:36:41.156Z,4.63
2018-06-29T12:39:10.121Z,4.70
2018-06-29T12:41:39.469Z,4.87
2018-06-29T12:44:08.396Z,3.90
2018-06-29T12:46:36.952Z,4.20
2018-06-29T12:49:05.849Z,4.27
2018-06-29T12:51:34.658Z,4.23
2018-06-29T12:54:03.419Z,3.73
2018-06-29T12:56:31.951Z,4.27
2018-06-29T12:59:00.582Z,4.43
2018-06-29T13:01:29.212Z,3.70
2018-06-29T13:03:58.764Z,4.17
2018-06-29T13:06:28.236Z,3.90
2018-06-29T13:08:57.248Z,4.43
2018-06-29T13:11:26.305Z,3.90
2018-06-29T13:13:55.504Z,3.90
2018-06-29T13:16:24.392Z,4.10
2018-06-29T13:18:53.650Z,4.00
2018-06-29T13:21:22.796Z,4.30
2018-06-29T13:23:51.474Z,4.20
2018-06-29T13:26:20.587Z,4.60
2018-06-29T13:28:50.142Z,4.30
2018-06-29T13:31:18.904Z,4.53
2018-06-29T13:33:47.908Z,5.00
2018-06-29T13:36:16.572Z,5.10
2018-06-29T13:38:45.319Z,6.00
2018-06-29T13:41:14.021Z,5.93
2018-06-29T13:43:42.607Z,5.90
2018-06-29T13:46:10.923Z,5.90
2018-06-29T13:48:39.501Z,6.40
2018-06-29T13:51:08.171Z,5.47
2018-06-29T13:53:36.992Z,5.57
2018-06-29T13:56:05.583Z,5.40
2018-06-29T13:58:34.501Z,5.70
2018-06-29T14:01:03.180Z,5.70
2018-06-29T14:03:31.860Z,5.67
2018-06-29T14:06:00.416Z,4.73
2018-06-29T14:08:28.957Z,5.83
2018-06-29T14:10:57.780Z,5.80
2018-06-29T14:13:26.393Z,5.10
2018-06-29T14:15:54.979Z,5.63
2018-06-29T14:18:23.863Z,5.20
2018-06-29T14:20:52.425Z,5.13
2018-06-29T14:23:21.429Z,4.70
2018-06-29T14:25:50.000Z,4.43
2018-06-29T14:28:18.548Z,4.70
2018-06-29T14:30:47.117Z,5.00
2018-06-29T14:33:16.017Z,4.80
2018-06-29T14:35:44.569Z,5.20
2018-06-29T14:38:13.522Z,4.80
2018-06-29T14:40:42.083Z,5.00
2018-06-29T14:43:10.863Z,4.97
2018-06-29T14:45:39.436Z,4.70
2018-06-29T14:48:08.279Z,4.83
2018-06-29T14:50:36.945Z,4.93
2018-06-29T14:53:05.859Z,4.47
2018-06-29T14:55:34.409Z,4.83
2018-06-29T14:58:03.115Z,4.87
2018-06-29T15:00:31.660Z,5.33
2018-06-29T15:03:00.489Z,5.07
2018-06-29T15:05:29.020Z,5.27
2018-06-29T15:07:57.763Z,5.10
2018-06-29T15:10:26.449Z,4.97
2018-06-29T15:12:55.039Z,5.50
2018-06-29T15:15:23.662Z,5.00
2018-06-29T15:17:52.234Z,5.10
2018-06-29T15:20:20.728Z,5.17
2018-06-29T15:22:49.583Z,5.23
2018-06-29T15:25:18.088Z,5.23
2018-06-29T15:27:46.626Z,4.70
2018-06-29T15:30:15.141Z,4.67
2018-06-29T15:32:43.825Z,4.77
2018-06-29T15:35:12.369Z,4.77
2018-06-29T15:37:41.115Z,4.77
2018-06-29T15:40:09.799Z,4.33
2018-06-29T15:42:38.775Z,4.20
2018-06-29T15:45:07.596Z,4.27
2018-06-29T15:47:36.413Z,4.20
2018-06-29T15:50:05.399Z,4.23
2018-06-29T15:52:34.180Z,4.20
2018-06-29T15:55:02.805Z,4.10
2018-06-29T15:57:31.580Z,3.90
2018-06-29T16:00:00.212Z,3.87
2018-06-29T16:02:29.068Z,3.90
2018-06-29T16:04:57.648Z,3.57
2018-06-29T16:07:26.539Z,3.67
2018-06-29T16:09:55.213Z,3.63
2018-06-29T16:12:23.937Z,3.60
2018-06-29T16:14:52.570Z,3.60
2018-06-29T16:17:21.214Z,3.67
2018-06-29T16:19:49.833Z,4.33
2018-06-29T16:22:18.675Z,3.37
2018-06-29T16:24:47.286Z,3.60
2018-06-29T16:27:16.096Z,3.90
2018-06-29T16:29:45.005Z,3.80
2018-06-29T16:32:13.662Z,3.57
2018-06-29T16:34:42.238Z,3.50
2018-06-29T16:37:10.859Z,3.60
2018-06-29T16:39:39.493Z,3.80
2018-06-29T16:42:08.294Z,3.53
2018-06-29T16:44:36.907Z,3.70
2018-06-29T16:47:05.862Z,3.53
2018-06-29T16:49:34.561Z,3.70
2018-06-29T16:52:03.343Z,3.40
2018-06-29T16:54:31.883Z,3.73
2018-06-29T16:57:00.785Z,3.80
2018-06-29T16:59:29.294Z,3.50
2018-06-29T17:01:58.127Z,3.80
2018-06-29T17:04:26.802Z,3.60
2018-06-29T17:06:55.579Z,3.30
2018-06-29T17:09:24.119Z,3.47
2018-06-29T17:11:52.772Z,3.37
2018-06-29T17:14:21.431Z,3.30
2018-06-29T17:16:50.070Z,3.30
2018-06-29T17:19:18.640Z,3.40
2018-06-29T17:21:47.422Z,4.10
2018-06-29T17:24:16.063Z,3.70
2018-06-29T17:26:44.823Z,3.73
2018-06-29T17:29:13.316Z,3.70
2018-06-29T17:31:42.067Z,3.47
2018-06-29T17:34:10.904Z,3.30
2018-06-29T17:36:39.666Z,3.60
2018-06-29T17:39:09.689Z,3.73
2018-06-29T17:41:38.683Z,3.70
2018-06-29T17:44:07.195Z,3.50
2018-06-29T17:46:36.057Z,3.50
2018-06-29T17:49:04.459Z,3.43
2018-06-29T17:51:33.253Z,3.70
2018-06-29T17:54:01.752Z,3.40
2018-06-29T17:56:30.503Z,3.50
2018-06-29T17:58:58.988Z,3.30
2018-06-29T18:01:27.660Z,3.10
2018-06-29T18:03:56.165Z,2.77
2018-06-29T18:06:24.766Z,3.30
2018-06-29T18:08:53.475Z,2.83
2018-06-29T18:11:22.335Z,3.00
2018-06-29T18:13:50.860Z,2.67
2018-06-29T18:16:19.500Z,2.90
2018-06-29T18:18:48.049Z,2.97
2018-06-29T18:21:16.965Z,2.80
2018-06-29T18:23:45.568Z,2.77
2018-06-29T18:26:14.511Z,2.23
2018-06-29T18:28:43.135Z,2.37
2018-06-29T18:31:11.799Z,2.70
2018-06-29T18:33:40.743Z,2.80
2018-06-29T18:36:09.568Z,2.77
2018-06-29T18:38:38.265Z,2.50
2018-06-29T18:41:07.307Z,2.30
2018-06-29T18:43:35.696Z,2.80
2018-06-29T18:46:04.657Z,2.37
2018-06-29T18:48:33.286Z,2.67
2018-06-29T18:51:02.347Z,2.80
2018-06-29T18:53:31.176Z,2.67
2018-06-29T18:55:59.933Z,2.57
2018-06-29T18:58:28.816Z,2.50
2018-06-29T19:00:57.449Z,3.00
2018-06-29T19:03:26.042Z,2.73
2018-06-29T19:05:55.001Z,2.60
2018-06-29T19:08:23.860Z,2.80
2018-06-29T19:10:53.195Z,2.80
2018-06-29T19:13:22.018Z,2.47
2018-06-29T19:15:51.201Z,2.77
2018-06-29T19:18:20.187Z,2.57
2018-06-29T19:20:49.252Z,3.00
2018-06-29T19:23:18.163Z,2.60
2018-06-29T19:25:47.174Z,3.00
2018-06-29T19:28:15.792Z,3.20
2018-06-29T19:30:44.690Z,2.83
2018-06-29T19:33:13.257Z,2.50
2018-06-29T19:35:42.106Z,3.00
2018-06-29T19:38:10.828Z,2.97
2018-06-29T19:40:39.874Z,2.87
2018-06-29T19:43:08.507Z,3.10
2018-06-29T19:45:37.395Z,3.03
2018-06-29T19:48:06.129Z,3.00
2018-06-29T19:50:35.159Z,4.43
2018-06-29T19:53:03.794Z,3.67
2018-06-29T19:55:32.450Z,4.83
2018-06-29T19:58:01.076Z,3.50
2018-06-29T20:00:29.752Z,2.97
2018-06-29T20:02:58.448Z,3.20
2018-06-29T20:05:27.142Z,3.63
2018-06-29T20:07:55.750Z,3.60
2018-06-29T20:10:24.550Z,3.60
2018-06-29T20:12:53.122Z,4.13
2018-06-29T20:15:21.779Z,3.37
2018-06-29T20:17:50.353Z,3.57
2018-06-29T20:20:19.433Z,4.57
2018-06-29T20:22:48.042Z,3.90
2018-06-29T20:25:16.977Z,4.03
2018-06-29T20:27:45.594Z,5.00
2018-06-29T20:30:14.308Z,5.27
2018-06-29T20:32:42.934Z,4.60
2018-06-29T20:35:11.647Z,5.03
2018-06-29T20:37:40.421Z,5.10
2018-06-29T20:40:09.125Z,4.90
2018-06-29T20:42:37.863Z,4.40
2018-06-29T20:45:07.403Z,4.73
2018-06-29T20:47:36.198Z,4.63
2018-06-29T20:50:05.313Z,4.80
2018-06-29T20:52:34.027Z,5.10
2018-06-29T20:55:02.701Z,5.40
2018-06-29T20:57:31.439Z,4.97
2018-06-29T21:00:00.295Z,4.00
2018-06-29T21:02:28.889Z,4.53
2018-06-29T21:04:57.720Z,4.60
2018-06-29T21:07:26.401Z,4.80
2018-06-29T21:09:55.316Z,5.27
2018-06-29T21:12:24.144Z,5.10
2018-06-29T21:14:52.982Z,4.70
2018-06-29T21:17:21.660Z,4.97
2018-06-29T21:19:50.623Z,4.90
2018-06-29T21:22:19.467Z,4.73
2018-06-29T21:24:48.349Z,5.07
2018-06-29T21:27:17.059Z,5.23
2018-06-29T21:29:46.050Z,5.50
2018-06-29T21:32:14.775Z,5.33
2018-06-29T21:34:43.427Z,5.17
2018-06-29T21:37:12.008Z,4.80
2018-06-29T21:39:40.896Z,5.30
2018-06-29T21:42:09.668Z,5.30
2018-06-29T21:44:38.598Z,5.30
2018-06-29T21:47:07.334Z,5.33
2018-06-29T21:49:36.166Z,5.40
2018-06-29T21:52:04.744Z,5.53
2018-06-29T21:54:33.800Z,5.57
2018-06-29T21:57:02.508Z,6.03
2018-06-29T21:59:31.463Z,5.20
2018-06-29T22:02:00.226Z,6.23
2018-06-29T22:04:29.090Z,5.87
2018-06-29T22:06:57.930Z,5.50
2018-06-29T22:09:26.716Z,5.43
2018-06-29T22:11:55.451Z,5.60
2018-06-29T22:14:24.214Z,6.40
2018-06-29T22:16:52.770Z,5.60
2018-06-29T22:19:21.868Z,5.77
2018-06-29T22:21:50.701Z,6.20
2018-06-29T22:24:19.255Z,6.43
2018-06-29T22:26:47.998Z,5.97
2018-06-29T22:29:16.891Z,6.07
2018-06-29T22:31:45.533Z,5.60
2018-06-29T22:34:14.413Z,5.80
2018-06-29T22:36:43.076Z,5.07
2018-06-29T22:39:12.921Z,4.83
2018-06-29T22:41:42.554Z,4.73
2018-06-29T22:44:11.446Z,4.57
2018-06-29T22:46:40.152Z,4.87
2018-06-29T22:49:09.025Z,4.37
2018-06-29T22:51:37.576Z,5.10
2018-06-29T22:54:06.394Z,4.90
2018-06-29T22:56:35.082Z,4.47
2018-06-29T22:59:03.870Z,5.03
2018-06-29T23:01:32.537Z,4.33
2018-06-29T23:04:01.245Z,4.40
2018-06-29T23:06:29.839Z,4.33
2018-06-29T23:08:58.702Z,4.43
2018-06-29T23:11:27.365Z,4.50
2018-06-29T23:13:56.106Z,4.07
2018-06-29T23:16:24.689Z,4.10
2018-06-29T23:18:53.496Z,3.97
2018-06-29T23:21:22.126Z,4.37
2018-06-29T23:23:50.854Z,4.10
2018-06-29T23:26:19.085Z,4.03
2018-06-29T23:28:47.787Z,4.57
2018-06-29T23:31:16.497Z,4.10
2018-06-29T23:33:45.123Z,4.00
2018-06-29T23:36:13.752Z,3.80
2018-06-29T23:38:42.344Z,4.00
2018-06-29T23:41:10.939Z,4.60
2018-06-29T23:43:39.684Z,3.97
2018-06-29T23:46:08.288Z,3.77
2018-06-29T23:48:36.877Z,4.17
2018-06-29T23:51:05.536Z,4.10
2018-06-29T23:53:34.186Z,4.13
2018-06-29T23:56:02.759Z,4.63
2018-06-29T23:58:31.580Z,4.30
